Airport View

Enter AWOS ICAO identifier for current METAR.

ex. KFNL

KGKJ 181053Z AUTO 11010G16KT 080V150 8SM -FZRA OVC036 M05/M07 A3018 RMK AO2 UPB17E22B49E52FZRAB52SNE17B22E49 SLP241 P0001 I1000 T10501072

18 Jan 2020 11:24

Frequency: 121.425

Phone: 814-337-2590

Other Area AWOS: KFKL - KHZY - KERI - KYNG

TAF AMD KFKL 180959Z 1810/1906 13012KT 1SM -SN OVC008 TEMPO 1810/1811 1/2SM SN FM181500 15015G25KT 1SM -FZRASN OVC008 FM182100 19015G25KT 5SM -RA OVC007 FM190100 23015G25KT 5SM -SHRA OVC010